createdAt,value
2022-11-04T00:04:45.556Z,90.90
2022-11-04T00:09:45.516Z,91.00
2022-11-04T00:14:45.437Z,90.59
2022-11-04T00:19:45.351Z,90.12
2022-11-04T00:24:46.334Z,90.06
2022-11-04T00:29:45.243Z,90.06
2022-11-04T00:34:45.199Z,90.00
2022-11-04T00:39:45.178Z,90.82
2022-11-04T00:44:45.069Z,90.21
2022-11-04T00:49:45.163Z,90.41
2022-11-04T00:54:45.039Z,90.41
2022-11-04T00:59:53.862Z,90.27
2022-11-04T01:04:44.848Z,90.78
2022-11-04T01:09:44.874Z,90.99
2022-11-04T01:14:44.758Z,90.37
2022-11-04T01:19:44.711Z,90.37
2022-11-04T01:24:44.686Z,90.58
2022-11-04T01:29:44.584Z,91.39
2022-11-04T01:34:44.575Z,91.19
2022-11-04T01:39:48.007Z,91.09
2022-11-04T01:44:44.600Z,91.09
2022-11-04T01:49:44.502Z,90.99
2022-11-04T01:54:44.415Z,90.88
2022-11-04T01:59:44.278Z,90.88
2022-11-04T02:04:44.313Z,90.88
2022-11-04T02:09:44.229Z,90.99
2022-11-04T02:14:44.104Z,90.88
2022-11-04T02:19:44.053Z,90.58
2022-11-04T02:24:43.978Z,90.41
2022-11-04T02:29:43.944Z,90.72
2022-11-04T02:34:44.042Z,90.72
2022-11-04T02:39:43.993Z,90.77
2022-11-04T02:44:43.915Z,90.72
2022-11-04T02:49:43.908Z,90.41
2022-11-04T02:54:44.834Z,90.82
2022-11-04T02:59:43.740Z,90.05
2022-11-04T03:04:43.698Z,90.77
2022-11-04T03:09:43.594Z,90.60
2022-11-04T03:14:43.485Z,90.70
2022-11-04T03:19:43.412Z,90.95
2022-11-04T03:24:43.355Z,90.34
2022-11-04T03:29:43.405Z,90.54
2022-11-04T03:34:43.310Z,90.17
2022-11-04T03:39:43.268Z,90.69
2022-11-04T03:44:43.192Z,91.55
2022-11-04T03:49:43.278Z,91.44
2022-11-04T03:54:43.152Z,91.80
2022-11-04T03:59:42.988Z,91.55
2022-11-04T04:04:42.959Z,91.38
2022-11-04T04:09:42.837Z,91.80
2022-11-04T04:14:43.621Z,92.00
2022-11-04T04:19:42.784Z,92.21
2022-11-04T04:24:42.697Z,91.69
2022-11-04T04:29:42.665Z,92.10
2022-11-04T04:34:42.632Z,91.80
2022-11-04T04:39:44.597Z,92.04
2022-11-04T04:44:42.586Z,92.46
2022-11-04T04:49:42.586Z,92.35
2022-11-04T04:54:43.423Z,91.74
2022-11-04T04:59:42.381Z,91.63
2022-11-04T05:04:42.316Z,91.78
2022-11-04T05:09:42.248Z,91.67
2022-11-04T05:14:42.302Z,91.88
2022-11-04T05:19:42.216Z,92.80
2022-11-04T05:24:42.031Z,92.40
2022-11-04T05:29:42.054Z,92.60
2022-11-04T05:34:41.980Z,92.19
2022-11-04T05:39:41.938Z,92.14
2022-11-04T05:44:41.905Z,91.84
2022-11-04T05:49:41.965Z,91.74
2022-11-04T05:54:41.716Z,91.53
2022-11-04T05:59:41.775Z,91.74
2022-11-04T06:04:42.224Z,91.63
2022-11-04T06:09:42.192Z,90.61
2022-11-04T06:14:41.569Z,90.24
2022-11-04T06:19:41.512Z,90.59
2022-11-04T06:24:41.484Z,91.41
2022-11-04T06:29:41.403Z,91.57
2022-11-04T06:34:41.370Z,91.99
2022-11-04T06:39:41.274Z,91.78
2022-11-04T06:44:41.242Z,91.67
2022-11-04T06:49:41.214Z,91.99
2022-11-04T06:54:41.116Z,92.19
2022-11-04T06:59:49.912Z,91.88
2022-11-04T07:04:41.031Z,91.57
2022-11-04T07:09:40.911Z,91.78
2022-11-04T07:14:40.925Z,91.74
2022-11-04T07:19:40.875Z,91.74
2022-11-04T07:24:40.790Z,91.94
2022-11-04T07:29:40.784Z,91.69
2022-11-04T07:34:40.713Z,91.69
2022-11-04T07:39:40.622Z,91.65
2022-11-04T07:44:40.564Z,91.65
2022-11-04T07:49:40.528Z,91.35
2022-11-04T07:54:40.483Z,91.40
2022-11-04T07:59:40.378Z,91.61
2022-11-04T08:04:40.381Z,91.26
2022-11-04T08:09:40.334Z,90.75
2022-11-04T08:14:40.232Z,90.23
2022-11-04T08:19:40.183Z,90.39
2022-11-04T08:24:40.110Z,90.15
2022-11-04T08:29:40.117Z,89.80
2022-11-04T08:34:40.130Z,89.45
2022-11-04T08:39:39.962Z,88.49
2022-11-04T08:44:40.932Z,87.02
2022-11-04T08:49:39.890Z,85.45
2022-11-04T08:54:39.766Z,84.90
2022-11-04T08:59:39.768Z,83.87
2022-11-04T09:04:39.731Z,82.00
2022-11-04T09:09:39.657Z,82.41
2022-11-04T09:14:39.737Z,82.86
2022-11-04T09:19:39.516Z,83.61
2022-11-04T09:24:39.530Z,83.57
2022-11-04T09:29:39.491Z,82.65
2022-11-04T09:34:39.409Z,83.51
2022-11-04T09:39:39.362Z,85.41
2022-11-04T09:44:59.666Z,84.75
2022-11-04T09:49:40.230Z,84.45
2022-11-04T09:54:41.880Z,83.33
2022-11-04T09:59:40.153Z,83.23
2022-11-04T10:04:39.021Z,82.51
2022-11-04T10:09:38.955Z,83.80
2022-11-04T10:14:38.914Z,82.88
2022-11-04T10:19:38.839Z,82.03
2022-11-04T10:24:38.810Z,81.85
2022-11-04T10:29:38.743Z,82.12
2022-11-04T10:34:38.729Z,80.69
2022-11-04T10:39:38.650Z,78.52
2022-11-04T10:44:38.605Z,76.95
2022-11-04T10:49:38.543Z,77.19
2022-11-04T10:54:38.512Z,74.82
2022-11-04T10:59:38.449Z,75.19
2022-11-04T11:04:38.362Z,74.21
2022-11-04T11:09:38.316Z,72.28
2022-11-04T11:14:38.243Z,71.67
2022-11-04T11:19:38.185Z,73.33
2022-11-04T11:24:38.162Z,77.26
2022-11-04T11:29:38.102Z,77.16
2022-11-04T11:34:38.040Z,78.04
2022-11-04T11:39:37.984Z,77.19
2022-11-04T11:44:38.040Z,74.82
2022-11-04T11:49:37.927Z,74.51
2022-11-04T11:54:37.890Z,73.29
2022-11-04T12:09:38.620Z,75.16
2022-11-04T12:14:37.678Z,73.53
2022-11-04T12:19:37.585Z,75.93
2022-11-04T12:24:37.495Z,72.01
2022-11-04T12:29:37.467Z,74.01
2022-11-04T12:34:37.403Z,72.92
2022-11-04T12:39:37.325Z,74.48
2022-11-04T12:44:37.302Z,74.41
2022-11-04T12:49:37.252Z,74.41
2022-11-04T12:54:37.228Z,73.74
2022-11-04T18:07:23.327Z,87.55
2022-11-04T18:12:22.266Z,87.76
2022-11-04T18:17:22.222Z,87.96
2022-11-04T18:22:22.260Z,88.06
2022-11-04T18:27:23.103Z,88.06
2022-11-04T18:32:22.066Z,87.85
2022-11-04T18:37:21.990Z,88.41
2022-11-04T18:42:22.346Z,88.45
2022-11-04T18:47:24.054Z,89.06
2022-11-04T18:52:21.790Z,88.76
2022-11-04T18:57:21.871Z,89.51
2022-11-04T19:02:29.371Z,88.86
2022-11-04T19:07:21.598Z,89.42
2022-11-04T19:12:21.536Z,90.58
2022-11-04T19:17:21.539Z,90.28
2022-11-04T19:22:21.453Z,90.52
2022-11-04T19:27:21.414Z,90.83
2022-11-04T19:32:21.313Z,91.03
2022-11-04T19:37:21.294Z,90.73
2022-11-04T19:42:21.257Z,91.03
2022-11-04T19:47:21.162Z,90.67
2022-11-04T19:52:21.133Z,90.71
2022-11-04T19:57:21.093Z,90.91
2022-11-04T20:02:21.162Z,91.33
2022-11-04T20:07:21.036Z,91.27
2022-11-04T20:12:20.877Z,92.25
2022-11-04T20:17:20.861Z,91.94
2022-11-04T20:22:20.784Z,91.63
2022-11-04T20:27:20.729Z,91.53
2022-11-04T20:32:20.761Z,91.84
2022-11-04T20:37:20.603Z,92.40
2022-11-04T20:42:20.553Z,91.94
2022-11-04T20:47:20.481Z,91.88
2022-11-04T20:52:20.586Z,92.76
2022-11-04T20:57:20.423Z,92.55
2022-11-04T21:02:20.527Z,92.72
2022-11-04T21:07:20.325Z,92.51
2022-11-04T21:12:20.233Z,92.10
2022-11-04T21:17:20.217Z,91.90
2022-11-04T21:22:20.110Z,92.41
2022-11-04T21:27:20.084Z,92.31
2022-11-04T21:32:20.016Z,92.00
2022-11-04T21:37:19.972Z,91.90
2022-11-04T21:42:19.901Z,92.21
2022-11-04T21:47:19.855Z,92.10
2022-11-04T21:52:19.804Z,92.10
2022-11-04T21:57:19.766Z,92.21
2022-11-04T22:02:19.819Z,92.31
2022-11-04T22:07:19.637Z,92.21
2022-11-04T22:12:19.601Z,91.94
2022-11-04T22:17:19.526Z,92.46
2022-11-04T22:22:19.451Z,92.86
2022-11-04T22:27:19.413Z,93.54
2022-11-04T22:32:19.383Z,93.70
2022-11-04T22:37:19.364Z,93.39
2022-11-04T22:42:19.304Z,93.45
2022-11-04T22:47:22.618Z,93.55
2022-11-04T22:52:19.176Z,93.15
2022-11-04T22:57:19.111Z,93.25
2022-11-04T23:02:19.212Z,93.60
2022-11-04T23:07:18.964Z,92.88
2022-11-04T23:12:18.943Z,92.72
2022-11-04T23:17:19.000Z,92.61
2022-11-04T23:22:18.903Z,92.55
2022-11-04T23:27:18.842Z,92.86
2022-11-04T23:32:24.485Z,92.70
2022-11-04T23:37:19.741Z,93.12
2022-11-04T23:42:18.615Z,92.60
2022-11-04T23:47:18.532Z,92.54
2022-11-04T23:52:18.499Z,91.86
2022-11-04T23:57:18.557Z,92.17
